Impacts METAR Board
IDs:

KDCA - Washington/National, VA, US

Updated at: 0700 UTC 07 Dec 2022
Potential Impact None Slight Moderate High
Time 06/19Z 06/20Z 06/21Z 06/22Z 06/23Z 07/00Z 07/01Z 07/02Z 07/03Z 07/04Z 07/05Z 07/06Z 07/07Z
Temp47 47 47 48 48 48 48 50 50 50 51 51 50
Dewpt46 45 46 46 46 47 47 48 48 49 49 50 49
Altim30.22 30.21 30.22 30.22 30.22 30.22 30.23 30.22 30.22 30.22 30.21 30.21 30.21
VIS4 5 4 5 5 8 5 9 9 5 8 9 6
CIG7 10 10 11 20 20 6 18 15 14 7 11 7
CoverOVCOVCOVCOVCOVCOVCOVCOVCOVCOVCOVCOVCOVC
FltCatIFRMVFRMVFRMVFRMVFRMVFRIFRMVFRMVFRMVFRIFRMVFRIFR
WX-DZ BR-DZ BR-DZ BR-RA BR-RA BR---RA BR-----DZ BR-RA--BR
WDir180180180180180180180200190190190200220
WSpd5 6 6 6 7 8 8 8 6 8 5 5 4
WGst-- -- -- -- -- -- -- -- -- -- -- -- --
Raw hourly METARs
KDCA 061900Z 18005KT 4SM -DZ BR BKN007 BKN012 OVC028 08/08 A3022 RMK AO2 P0000 T00830078
KDCA 061952Z 18006KT 5SM -DZ BR FEW006 OVC010 08/07 A3021 RMK AO2 DZE19B41 SLP231 P0000 T00830072
KDCA 062052Z 18006KT 4SM -DZ BR OVC010 08/08 A3022 RMK AO2 SLP231 P0000 60001 T00830078 55006
KDCA 062152Z 18006KT 5SM -RA BR OVC011 09/08 A3022 RMK AO2 DZE50RAB50 SLP233 P0001 T00890078
KDCA 062252Z 18007KT 5SM -RA BR SCT006 BKN020 OVC024 09/08 A3022 RMK AO2 SLP234 P0003 T00890078
KDCA 062352Z 18008KT 8SM FEW006 SCT015 OVC020 09/08 A3022 RMK AO2 RAE24 SLP234 P0001 60006 T00890083 10089 20083 51003
KDCA 070052Z 18008KT 5SM -RA BR BKN006 OVC019 09/08 A3023 RMK AO2 DZB08E42RAB42 SLP236 P0000 T00890083
KDCA 070152Z 20008KT 9SM FEW006 OVC018 10/09 A3022 RMK AO2 RAE24 SLP232 P0000 T01000089
KDCA 070303Z 19006KT 9SM OVC015 10/09 A3022 RMK AO2 RAE0256 P0000 T01000089
KDCA 070352Z 19008KT 5SM -DZ BR OVC014 10/09 A3022 RMK AO2 RAE0256DZB48 SLP232 P0000 T01000094
KDCA 070452Z 19005KT 8SM -RA OVC007 11/09 A3021 RMK AO2 DZE01RAB50 SLP229 P0000 T01060094 401060028
KDCA 070552Z 20005KT 9SM OVC011 11/10 A3021 RMK AO2 RAE05 SLP229 P0000 60000 T01060100 10106 20089 55003
KDCA 070652Z 22004KT 6SM BR BKN007 OVC014 10/09 A3021 RMK AO2 SLP229 T01000094



Page loaded:  07:14 UTC  |   11:14 PM Pacific  |   12:14 AM Mountain  |   01:14 AM Central  |   02:14 AM Eastern

 

ADVISORIES

FORECASTS

FORECASTS

OBSERVATIONS

USER TOOLS

ABOUT US